Time;durP1;ratioP1;P1;durP2;ratioP2;P2;SDS_P1;SDS_P2;PMS_P1;PMS_P2;Temp;Humidity;BMP_temperature;BMP_pressure;BME280_temperature;BME280_humidity;BME280_pressure;Samples;Min_cycle;Max_cycle;Signal;HPM_P1;HPM_P2
2021/03/03 00:02:21;;;;;;;85.30;32.17;;;;;;;-143.98;100.00;68091.63;6187501;23;20029;-84
2021/03/03 00:04:47;;;;;;;93.40;35.67;;;;;;;-143.98;100.00;68091.63;6190449;23;20064;-84
2021/03/03 00:07:15;;;;;;;82.53;33.65;;;;;;;-143.98;100.00;68091.63;6190035;23;20025;-84
2021/03/03 00:09:42;;;;;;;84.88;32.45;;;;;;;-143.98;100.00;68091.63;6166201;23;20024;-84
2021/03/03 00:12:10;;;;;;;77.65;30.38;;;;;;;-143.98;100.00;68091.63;6190092;23;20028;-84
2021/03/03 00:14:37;;;;;;;85.60;30.92;;;;;;;-143.98;100.00;68091.63;6164946;23;20032;-84
2021/03/03 00:17:04;;;;;;;83.78;30.10;;;;;;;-143.98;100.00;68091.63;6215362;23;20441;-84
2021/03/03 00:19:31;;;;;;;80.57;28.48;;;;;;;-143.98;100.00;68091.63;6189584;23;20051;-84
2021/03/03 00:21:57;;;;;;;76.60;30.08;;;;;;;-143.98;100.00;68091.63;6190729;23;20025;-85
2021/03/03 00:24:24;;;;;;;70.90;27.55;;;;;;;-143.98;100.00;68091.63;6167393;23;20284;-85
2021/03/03 00:26:52;;;;;;;80.43;30.92;;;;;;;-143.98;100.00;68091.63;6191891;23;20039;-84
2021/03/03 00:29:18;;;;;;;78.43;31.80;;;;;;;-143.98;100.00;68091.63;6192521;23;20109;-84
2021/03/03 00:31:45;;;;;;;82.13;31.20;;;;;;;-143.98;100.00;68091.63;6217329;23;20029;-84
2021/03/03 00:34:11;;;;;;;89.20;31.30;;;;;;;-143.98;100.00;68091.63;6189479;23;20025;-84
2021/03/03 00:36:38;;;;;;;81.32;30.83;;;;;;;-143.98;100.00;68091.63;6189914;23;20024;-84
2021/03/03 00:39:04;;;;;;;83.53;28.98;;;;;;;-143.98;100.00;68091.63;6189751;23;20039;-84
2021/03/03 00:41:33;;;;;;;82.18;30.95;;;;;;;-143.98;100.00;68091.63;6217575;23;20267;-84
2021/03/03 00:44:00;;;;;;;78.90;29.88;;;;;;;-143.98;100.00;68091.63;6191315;23;20024;-84
2021/03/03 00:46:26;;;;;;;88.47;31.95;;;;;;;-143.98;100.00;68091.63;6190079;23;20029;-84
2021/03/03 00:48:57;;;;;;;79.28;29.77;;;;;;;-143.98;100.00;68091.63;6191768;23;20028;-84
2021/03/03 00:51:23;;;;;;;94.22;30.65;;;;;;;-143.98;100.00;68091.63;6167813;23;20357;-84
2021/03/03 00:53:49;;;;;;;86.30;31.92;;;;;;;-143.98;100.00;68091.63;6189602;23;20047;-84
2021/03/03 00:56:15;;;;;;;85.68;31.25;;;;;;;-143.98;100.00;68091.63;6192222;23;20037;-84
2021/03/03 00:58:41;;;;;;;82.38;29.73;;;;;;;-143.98;100.00;68091.63;6192082;23;20099;-85
2021/03/03 01:01:11;;;;;;;90.65;31.77;;;;;;;-143.98;100.00;68091.63;6191182;23;20080;-84
2021/03/03 01:03:38;;;;;;;94.88;33.22;;;;;;;-143.98;100.00;68091.63;6191498;23;20104;-84
2021/03/03 01:06:04;;;;;;;89.05;32.03;;;;;;;-143.98;100.00;68091.63;6219227;23;20028;-85
2021/03/03 01:08:30;;;;;;;82.63;29.63;;;;;;;-143.98;100.00;68091.63;6193746;23;20028;-85
2021/03/03 01:10:56;;;;;;;88.15;31.45;;;;;;;-143.98;100.00;68091.63;6169657;23;20052;-85
2021/03/03 01:13:23;;;;;;;89.28;30.85;;;;;;;-143.98;100.00;68091.63;6197167;23;20024;-85
2021/03/03 01:15:49;;;;;;;79.45;30.02;;;;;;;-143.98;100.00;68091.63;6177629;23;20061;-84
2021/03/03 01:18:16;;;;;;;85.57;30.70;;;;;;;-143.98;100.00;68091.63;6157231;23;20053;-84
2021/03/03 01:20:42;;;;;;;78.75;28.85;;;;;;;-143.98;100.00;68091.63;6190205;23;20029;-84
2021/03/03 01:23:09;;;;;;;79.18;28.85;;;;;;;-143.98;100.00;68091.63;6189269;23;20056;-84
2021/03/03 01:25:36;;;;;;;87.07;31.25;;;;;;;-143.98;100.00;68091.63;6181537;23;20037;-84
2021/03/03 01:28:05;;;;;;;86.50;32.03;;;;;;;-143.98;100.00;68091.63;6160259;23;20073;-84
2021/03/03 01:30:49;;;;;;;78.28;31.05;;;;;;;-143.98;100.00;68091.63;6153167;23;20263;-84
2021/03/03 01:33:30;;;;;;;87.53;30.25;;;;;;;-143.98;100.00;68091.63;6165136;23;20024;-84
2021/03/03 01:35:57;;;;;;;84.50;29.98;;;;;;;-143.98;100.00;68091.63;6142691;23;20029;-85
2021/03/03 01:38:24;;;;;;;83.13;30.70;;;;;;;-143.98;100.00;68091.63;6183884;23;20025;-84
2021/03/03 01:40:52;;;;;;;79.55;30.02;;;;;;;-143.98;100.00;68091.63;6175089;23;20463;-84
2021/03/03 01:43:18;;;;;;;81.50;31.50;;;;;;;-143.98;100.00;68091.63;6189665;23;20088;-84
2021/03/03 01:45:48;;;;;;;84.35;30.40;;;;;;;-143.98;100.00;68091.63;6138897;23;20028;-84
2021/03/03 01:48:14;;;;;;;95.50;32.83;;;;;;;-143.98;100.00;68091.63;6161998;23;20029;-84
2021/03/03 01:50:41;;;;;;;83.32;32.05;;;;;;;-143.98;100.00;68091.63;6164134;23;20087;-84
2021/03/03 01:53:15;;;;;;;93.20;31.27;;;;;;;-143.98;100.00;68091.63;6139593;23;20040;-84
2021/03/03 01:55:41;;;;;;;83.15;30.83;;;;;;;-143.98;100.00;68091.63;6162075;23;20040;-84
2021/03/03 01:58:07;;;;;;;92.47;31.95;;;;;;;-143.98;100.00;68091.63;6163306;23;20409;-84
2021/03/03 02:00:34;;;;;;;83.38;32.20;;;;;;;-143.98;100.00;68091.63;6187175;23;20025;-85
2021/03/03 02:03:00;;;;;;;86.25;33.05;;;;;;;-143.98;100.00;68091.63;6139227;23;20111;-84
2021/03/03 02:05:30;;;;;;;87.85;32.03;;;;;;;-143.98;100.00;68091.63;6163209;23;20057;-85
2021/03/03 02:08:23;;;;;;;96.32;33.90;;;;;;;-143.98;100.00;68091.63;6162602;23;20433;-84
2021/03/03 02:11:01;;;;;;;87.95;30.67;;;;;;;-143.98;100.00;68091.63;6133151;23;20029;-84
2021/03/03 02:13:37;;;;;;;85.40;29.83;;;;;;;-143.98;100.00;68091.63;6136601;23;20025;-84
2021/03/03 02:16:04;;;;;;;88.53;32.80;;;;;;;-143.98;100.00;68091.63;6135827;23;20218;-85
2021/03/03 02:18:32;;;;;;;84.30;30.67;;;;;;;-143.98;100.00;68091.63;6133989;23;20107;-84
2021/03/03 02:21:09;;;;;;;86.10;30.15;;;;;;;-143.98;100.00;68091.63;6158199;23;20029;-85
2021/03/03 02:23:52;;;;;;;84.85;31.35;;;;;;;-143.98;100.00;68091.63;6137608;23;20021;-85
2021/03/03 02:26:20;;;;;;;87.90;30.33;;;;;;;-143.98;100.00;68091.63;6136819;23;20024;-84
2021/03/03 02:28:47;;;;;;;84.35;30.15;;;;;;;-143.98;100.00;68091.63;6187873;23;20128;-84
2021/03/03 02:31:23;;;;;;;97.13;31.70;;;;;;;-143.98;100.00;68091.63;6163657;23;20535;-84
2021/03/03 02:33:49;;;;;;;80.32;31.15;;;;;;;-143.98;100.00;68091.63;6160151;23;20107;-85
2021/03/03 02:36:18;;;;;;;74.53;29.73;;;;;;;-143.98;100.00;68091.63;6161382;23;20213;-83
2021/03/03 02:38:47;;;;;;;87.57;29.33;;;;;;;-143.98;100.00;68091.63;6186951;23;20111;-83
2021/03/03 02:41:15;;;;;;;88.85;30.10;;;;;;;-143.98;100.00;68091.63;6160437;23;20297;-83
2021/03/03 02:43:48;;;;;;;87.65;30.95;;;;;;;-143.98;100.00;68091.63;6136964;23;20033;-83
2021/03/03 02:46:14;;;;;;;89.80;30.40;;;;;;;-143.98;100.00;68091.63;6135322;23;20490;-83
2021/03/03 02:48:45;;;;;;;80.22;31.02;;;;;;;-143.98;100.00;68091.63;6138950;23;20025;-83
2021/03/03 02:51:21;;;;;;;89.00;31.77;;;;;;;-143.98;100.00;68091.63;6162837;23;20036;-83
2021/03/03 02:53:50;;;;;;;88.75;30.00;;;;;;;-143.98;100.00;68091.63;6139316;23;20021;-85
2021/03/03 02:56:20;;;;;;;83.07;29.65;;;;;;;-143.98;100.00;68091.63;6187010;23;20036;-83
2021/03/03 02:58:52;;;;;;;85.10;29.67;;;;;;;-143.98;100.00;68091.63;6162869;23;20365;-83
2021/03/03 03:01:23;;;;;;;84.72;30.17;;;;;;;-143.98;100.00;68091.63;6136143;23;20031;-83
2021/03/03 03:04:01;;;;;;;97.80;31.75;;;;;;;-143.98;100.00;68091.63;6137836;23;20048;-83
2021/03/03 03:06:36;;;;;;;85.35;31.30;;;;;;;-143.98;100.00;68091.63;6137572;23;20387;-83
2021/03/03 03:09:07;;;;;;;88.05;30.77;;;;;;;-143.98;100.00;68091.63;6163640;23;20028;-83
2021/03/03 03:11:36;;;;;;;94.35;30.50;;;;;;;-143.98;100.00;68091.63;6174672;23;20029;-81
2021/03/03 03:14:06;;;;;;;93.65;32.03;;;;;;;-143.98;100.00;68091.63;6174284;23;20076;-81
2021/03/03 03:16:33;;;;;;;84.80;30.58;;;;;;;-143.98;100.00;68091.63;6148662;23;20095;-81
2021/03/03 03:19:03;;;;;;;84.15;30.15;;;;;;;-143.98;100.00;68091.63;6139808;23;20362;-84
2021/03/03 03:21:37;;;;;;;82.25;31.48;;;;;;;-143.98;100.00;68091.63;6186945;23;20414;-84
2021/03/03 03:24:05;;;;;;;120.45;53.80;;;;;;;-143.98;100.00;68091.63;6186325;23;20390;-81
2021/03/03 03:26:32;;;;;;;92.05;35.03;;;;;;;-143.98;100.00;68091.63;6161813;23;20174;-81
2021/03/03 03:28:58;;;;;;;89.82;32.50;;;;;;;-143.98;100.00;68091.63;6136474;23;20029;-81
2021/03/03 03:31:25;;;;;;;85.95;29.70;;;;;;;-143.98;100.00;68091.63;6160914;23;20024;-81
2021/03/03 03:33:51;;;;;;;86.70;30.73;;;;;;;-143.98;100.00;68091.63;6136025;23;20025;-84
2021/03/03 03:36:19;;;;;;;82.25;30.50;;;;;;;-143.98;100.00;68091.63;6187304;23;20116;-81
2021/03/03 03:38:47;;;;;;;76.60;27.15;;;;;;;-143.98;100.00;68091.63;6137682;23;20080;-81
2021/03/03 03:41:14;;;;;;;88.32;30.60;;;;;;;-143.98;100.00;68091.63;6167882;23;20025;-81
2021/03/03 03:43:41;;;;;;;83.55;30.38;;;;;;;-143.98;100.00;68091.63;6169042;23;20390;-81
2021/03/03 03:46:08;;;;;;;81.40;29.85;;;;;;;-143.98;100.00;68091.63;6194265;23;20040;-81
2021/03/03 03:48:35;;;;;;;70.60;25.38;;;;;;;-143.98;100.00;68091.63;6161605;23;20032;-81
2021/03/03 03:51:08;;;;;;;74.70;27.58;;;;;;;-143.98;100.00;68091.63;6184340;23;20037;-82
2021/03/03 03:53:35;;;;;;;69.15;25.33;;;;;;;-143.98;100.00;68091.63;6185215;23;20352;-82
2021/03/03 03:56:06;;;;;;;59.65;23.00;;;;;;;-143.98;100.00;68091.63;6185046;23;20474;-82
2021/03/03 03:58:32;;;;;;;63.30;25.08;;;;;;;-143.98;100.00;68091.63;6135601;23;20462;-82
2021/03/03 04:00:59;;;;;;;77.20;26.60;;;;;;;-143.98;100.00;68091.63;6158500;23;20025;-82
2021/03/03 04:03:25;;;;;;;73.78;26.55;;;;;;;-143.98;100.00;68091.63;6183771;23;20032;-82
2021/03/03 04:05:51;;;;;;;56.28;22.13;;;;;;;-143.98;100.00;68091.63;6181359;23;20035;-82
2021/03/03 04:08:18;;;;;;;54.08;21.98;;;;;;;-143.98;100.00;68091.63;6157655;23;20092;-82
2021/03/03 04:10:44;;;;;;;51.45;20.08;;;;;;;-143.98;100.00;68091.63;6158867;23;20140;-82
2021/03/03 04:13:11;;;;;;;68.03;25.88;;;;;;;-143.98;100.00;68091.63;6146211;23;20053;-82
2021/03/03 04:15:37;;;;;;;76.63;26.27;;;;;;;-143.98;100.00;68091.63;6211804;23;20012;-82
2021/03/03 04:18:06;;;;;;;66.05;25.05;;;;;;;-143.98;100.00;68091.63;6216441;23;20319;-82
2021/03/03 04:20:33;;;;;;;65.55;24.75;;;;;;;-143.98;100.00;68091.63;6161306;23;20103;-81
2021/03/03 04:22:59;;;;;;;62.33;25.73;;;;;;;-143.98;100.00;68091.63;6184763;23;20032;-82
2021/03/03 04:25:26;;;;;;;62.53;25.15;;;;;;;-143.98;100.00;68091.63;6185534;23;20021;-82
2021/03/03 04:27:52;;;;;;;59.88;23.52;;;;;;;-143.98;100.00;68091.63;6184904;23;20283;-82
2021/03/03 04:30:19;;;;;;;57.28;23.58;;;;;;;-143.98;100.00;68091.63;6212943;23;20028;-83
2021/03/03 04:33:06;;;;;;;62.25;22.52;;;;;;;-143.98;100.00;68091.63;6171000;23;20346;-83
2021/03/03 04:35:35;;;;;;;51.17;20.40;;;;;;;-143.98;100.00;68091.63;6161254;23;20422;-83
2021/03/03 04:38:03;;;;;;;55.70;21.20;;;;;;;-143.98;100.00;68091.63;6192131;23;20036;-84
2021/03/03 04:40:29;;;;;;;51.88;21.20;;;;;;;-143.98;100.00;68091.63;6206743;23;20028;-82
2021/03/03 04:42:56;;;;;;;59.63;22.63;;;;;;;-143.98;100.00;68091.63;6181833;23;20009;-82
2021/03/03 04:45:22;;;;;;;59.80;23.23;;;;;;;-143.98;100.00;68091.63;6208152;23;20036;-82
2021/03/03 04:47:56;;;;;;;66.72;24.52;;;;;;;-143.98;100.00;68091.63;6176095;23;20200;-83
2021/03/03 04:50:23;;;;;;;57.03;21.85;;;;;;;-143.98;100.00;68091.63;6175056;23;20072;-83
2021/03/03 04:52:49;;;;;;;55.17;21.90;;;;;;;-143.98;100.00;68091.63;6183950;23;20024;-82
2021/03/03 04:55:18;;;;;;;65.03;24.98;;;;;;;-143.98;100.00;68091.63;6202784;23;20137;-82
2021/03/03 04:57:48;;;;;;;55.35;22.52;;;;;;;-143.98;100.00;68091.63;6166965;23;20212;-82
2021/03/03 05:00:21;;;;;;;53.78;22.35;;;;;;;-143.98;100.00;68091.63;6163380;23;20028;-83
2021/03/03 05:02:47;;;;;;;59.83;23.13;;;;;;;-143.98;100.00;68091.63;6198757;23;20064;-82
2021/03/03 05:05:14;;;;;;;62.28;24.77;;;;;;;-143.98;100.00;68091.63;6184896;23;20020;-83
2021/03/03 05:07:41;;;;;;;59.17;24.05;;;;;;;-143.98;100.00;68091.63;6167828;23;20408;-83
2021/03/03 05:10:11;;;;;;;57.67;21.70;;;;;;;-143.98;100.00;68091.63;6189852;23;20353;-83
2021/03/03 05:12:39;;;;;;;58.83;24.10;;;;;;;-143.98;100.00;68091.63;6188769;23;20108;-83
2021/03/03 05:15:06;;;;;;;62.92;24.98;;;;;;;-143.98;100.00;68091.63;6187421;23;20034;-82
2021/03/03 05:17:33;;;;;;;54.75;22.58;;;;;;;-143.98;100.00;68091.63;6161574;23;20029;-83
2021/03/03 05:19:59;;;;;;;53.72;23.13;;;;;;;-143.98;100.00;68091.63;6185164;23;20107;-83
2021/03/03 05:22:26;;;;;;;49.05;21.48;;;;;;;-143.98;100.00;68091.63;6185583;23;20029;-83
2021/03/03 05:24:57;;;;;;;54.40;22.85;;;;;;;-143.98;100.00;68091.63;6188796;23;20418;-83
2021/03/03 05:27:29;;;;;;;60.45;23.00;;;;;;;-143.98;100.00;68091.63;6189026;23;20242;-83
2021/03/03 05:29:55;;;;;;;49.83;20.98;;;;;;;-143.98;100.00;68091.63;6174233;23;20052;-83
2021/03/03 05:32:22;;;;;;;50.55;22.88;;;;;;;-143.98;100.00;68091.63;6201622;23;20031;-83
2021/03/03 05:34:48;;;;;;;45.63;20.58;;;;;;;-143.98;100.00;68091.63;6219270;23;20259;-84
2021/03/03 05:37:14;;;;;;;49.55;22.10;;;;;;;-143.98;100.00;68091.63;6164630;23;20161;-83
2021/03/03 05:39:44;;;;;;;51.47;21.40;;;;;;;-143.98;100.00;68091.63;6187572;23;20133;-83
2021/03/03 05:42:16;;;;;;;51.63;22.00;;;;;;;-143.98;100.00;68091.63;6212823;23;20016;-83
2021/03/03 05:44:48;;;;;;;47.03;20.50;;;;;;;-143.98;100.00;68091.63;6185631;23;20203;-82
2021/03/03 05:47:17;;;;;;;44.67;21.38;;;;;;;-143.98;100.00;68091.63;6186213;23;20033;-84
2021/03/03 05:49:44;;;;;;;44.75;20.48;;;;;;;-143.98;100.00;68091.63;6184676;23;20025;-84
2021/03/03 05:52:20;;;;;;;49.28;21.23;;;;;;;-143.98;100.00;68091.63;6161872;23;20028;-84
2021/03/03 05:54:49;;;;;;;49.50;21.17;;;;;;;-143.98;100.00;68091.63;6188986;23;20063;-84
2021/03/03 05:57:16;;;;;;;51.53;20.83;;;;;;;-143.98;100.00;68091.63;6185122;23;20108;-83
2021/03/03 05:59:42;;;;;;;45.92;20.30;;;;;;;-143.98;100.00;68091.63;6160047;23;20172;-83
2021/03/03 06:02:09;;;;;;;46.10;22.02;;;;;;;-143.98;100.00;68091.63;6159419;23;20547;-83
2021/03/03 06:04:36;;;;;;;40.45;20.80;;;;;;;-143.98;100.00;68091.63;6185942;23;20024;-84
2021/03/03 06:07:06;;;;;;;43.97;20.70;;;;;;;-143.98;100.00;68091.63;6186532;23;20090;-83
2021/03/03 06:09:45;;;;;;;40.17;19.75;;;;;;;-143.98;100.00;68091.63;6186387;23;20028;-84
2021/03/03 06:12:17;;;;;;;48.75;21.17;;;;;;;-143.98;100.00;68091.63;6185323;23;20085;-82
2021/03/03 06:14:48;;;;;;;41.58;19.80;;;;;;;-143.98;100.00;68091.63;6185554;23;20193;-84
2021/03/03 06:17:14;;;;;;;37.65;18.95;;;;;;;-143.98;100.00;68091.63;6156404;23;20391;-84
2021/03/03 06:19:45;;;;;;;42.00;20.75;;;;;;;-143.98;100.00;68091.63;6129091;23;20291;-84
2021/03/03 06:22:26;;;;;;;39.38;20.38;;;;;;;-143.98;100.00;68091.63;6177568;23;20419;-84
2021/03/03 06:24:56;;;;;;;38.25;19.98;;;;;;;-143.98;100.00;68091.63;6180631;23;20036;-82
2021/03/03 06:27:23;;;;;;;41.97;20.05;;;;;;;-143.98;100.00;68091.63;6151991;23;20052;-82
2021/03/03 06:30:08;;;;;;;35.80;19.33;;;;;;;-143.98;100.00;68091.63;6155725;23;20029;-83
2021/03/03 06:33:16;;;;;;;38.40;19.88;;;;;;;-143.98;100.00;68091.63;6154541;23;20028;-82
2021/03/03 06:35:44;;;;;;;39.70;21.40;;;;;;;-143.98;100.00;68091.63;6066772;23;20376;-83
2021/03/03 06:38:12;;;;;;;37.03;21.50;;;;;;;-143.98;100.00;68091.63;6137980;23;20095;-83
2021/03/03 06:40:56;;;;;;;37.80;19.40;;;;;;;-143.98;100.00;68091.63;6127028;23;20028;-83
2021/03/03 06:43:32;;;;;;;31.45;17.95;;;;;;;-143.98;100.00;68091.63;6155091;23;20081;-84
2021/03/03 06:46:19;;;;;;;35.70;19.13;;;;;;;-143.98;100.00;68091.63;6153304;23;20025;-82
2021/03/03 06:48:51;;;;;;;34.25;19.30;;;;;;;-143.98;100.00;68091.63;6129300;23;20032;-82
2021/03/03 06:56:12;;;;;;;31.10;17.85;;;;;;;-143.98;100.00;68091.63;6138495;23;20203;-83
2021/03/03 07:00:21;;;;;;;28.70;16.92;;;;;;;-143.98;100.00;68091.63;5995655;23;20201;-84
2021/03/03 07:04:03;;;;;;;;;;;;;;;;;;;;;
2021/03/03 07:14:10;;;;;;;;;;;;;;;;;;;;;
2021/03/03 07:28:56;;;;;;;19.40;11.57;;;;;;;-143.98;100.00;68091.63;5936890;24;20033;-82
2021/03/03 07:32:40;;;;;;;;;;;;;;;;;;;;;
2021/03/03 07:36:35;;;;;;;19.35;11.15;;;;;;;-143.98;100.00;68091.63;5892967;24;20207;-83
2021/03/03 07:40:08;;;;;;;20.00;11.75;;;;;;;-143.98;100.00;68091.63;5757690;24;20154;-82
2021/03/03 07:43:33;;;;;;;;;;;;;;;;;;;;;
2021/03/03 07:47:01;;;;;;;25.05;12.80;;;;;;;-143.98;100.00;68091.63;5824120;24;20038;-83
2021/03/03 07:50:34;;;;;;;25.60;12.70;;;;;;;-143.98;100.00;68091.63;5833555;24;20030;-83
2021/03/03 07:54:15;;;;;;;;;;;;;;;;;;;;;
2021/03/03 07:57:54;;;;;;;35.22;15.20;;;;;;;-143.98;100.00;68091.63;5818705;24;20046;-83
2021/03/03 08:01:14;;;;;;;33.75;14.77;;;;;;;-143.98;100.00;68091.63;5815197;24;20319;-84
2021/03/03 08:05:02;;;;;;;38.55;15.15;;;;;;;-143.98;100.00;68091.63;5759746;24;20215;-84
2021/03/03 08:22:21;;;;;;;24.52;12.70;;;;;;;-143.98;100.00;68091.63;5776571;24;20043;-84
2021/03/03 08:37:14;;;;;;;;;;;;;;;-143.98;100.00;68091.63;5837493;24;20076;-84
2021/03/03 08:40:48;;;;;;;;;;;;;;;;;;;;;
2021/03/03 08:47:53;;;;;;;;;;;;;;;;;;;;;
2021/03/03 08:59:14;;;;;;;19.92;11.20;;;;;;;-143.98;100.00;68091.63;5803190;24;20351;-86
2021/03/03 09:22:57;;;;;;;22.02;12.82;;;;;;;-143.98;100.00;68091.63;6183852;23;20154;-85
2021/03/03 09:30:10;;;;;;;21.95;12.50;;;;;;;-143.98;100.00;68091.63;6274747;22;20113;-85
2021/03/03 09:37:45;;;;;;;24.35;13.05;;;;;;;-143.98;100.00;68091.63;5950313;24;20029;-85
2021/03/03 09:42:02;;;;;;;;;;;;;;;;;;;;;
2021/03/03 10:22:47;;;;;;;34.85;15.38;;;;;;;22.67;28.71;102620.63;5550318;22;18798851;-84
2021/03/03 10:26:08;;;;;;;33.47;15.60;;;;;;;23.17;28.48;102615.41;6243935;23;20024;-83
2021/03/03 10:34:07;;;;;;;;;;;;;;;;;;;;;
2021/03/03 10:37:48;;;;;;;25.73;14.35;;;;;;;24.20;27.10;102612.34;6013872;23;20198;-85
2021/03/03 10:41:31;;;;;;;32.08;15.65;;;;;;;25.93;25.69;102600.00;6064691;23;20049;-85
2021/03/03 11:13:24;;;;;;;;;;;;;;;;;;;;;
2021/03/03 11:28:58;;;;;;;34.70;18.33;;;;;;;27.94;22.28;102560.41;5974565;23;20047;-85
2021/03/03 11:33:35;;;;;;;;;;;;;;;;;;;;;
2021/03/03 11:36:45;;;;;;;34.53;17.92;;;;;;;28.33;21.74;102550.38;6057475;23;20086;-85
2021/03/03 11:47:57;;;;;;;31.70;17.88;;;;;;;30.29;20.31;102537.22;5912557;24;20025;-83
2021/03/03 11:51:20;;;;;;;35.55;18.48;;;;;;;32.36;18.22;102527.47;5880085;24;20321;-84
2021/03/03 11:54:59;;;;;;;42.80;18.77;;;;;;;30.45;19.60;102529.63;5918539;24;20016;-86
2021/03/03 12:01:50;;;;;;;39.70;20.33;;;;;;;30.85;19.40;102512.91;5867831;24;20075;-84
2021/03/03 12:05:42;;;;;;;36.97;19.17;;;;;;;30.88;19.29;102513.44;5852392;24;20055;-85
2021/03/03 12:13:35;;;;;;;;;;;;;;;;;;;;;
2021/03/03 12:20:43;;;;;;;37.42;19.90;;;;;;;30.94;19.23;102493.44;6008420;23;20121;-84
2021/03/03 12:28:35;;;;;;;42.28;20.65;;;;;;;30.63;19.25;102477.50;6037543;23;20666;-84
2021/03/03 12:35:30;;;;;;;38.13;20.63;;;;;;;28.96;20.91;102472.16;5942544;24;20029;-85
2021/03/03 12:38:53;;;;;;;42.78;21.73;;;;;;;26.06;24.70;102468.06;5818247;24;20414;-85
2021/03/03 12:47:18;;;;;;;;;;;;;;;;;;;;;
2021/03/03 13:04:20;;;;;;;42.45;21.15;;;;;;;23.11;30.36;102455.50;5934982;24;20036;-84
2021/03/03 13:14:47;;;;;;;46.63;23.67;;;;;;;22.12;32.21;102459.00;5948492;23;20021;-83
2021/03/03 13:18:27;;;;;;;49.80;26.35;;;;;;;21.44;34.70;102458.88;5850434;24;20223;-83
2021/03/03 13:21:30;;;;;;;40.20;23.77;;;;;;;21.38;34.74;102458.31;5876165;24;20022;-82
2021/03/03 13:24:50;;;;;;;50.17;26.92;;;;;;;21.28;34.57;102448.25;5888640;24;20071;-83
2021/03/03 13:28:09;;;;;;;;;;;;;;;;;;;;;
2021/03/03 13:32:19;;;;;;;49.83;25.33;;;;;;;21.19;35.43;102447.84;5861897;24;20052;-83
2021/03/03 13:35:28;;;;;;;58.30;26.52;;;;;;;21.22;35.39;102450.28;5923094;23;20026;-85
2021/03/03 13:38:49;;;;;;;;;;;;;;;;;;;;;
2021/03/03 13:42:35;;;;;;;;;;;;;;;;;;;;;
2021/03/03 13:45:44;;;;;;;56.55;30.67;;;;;;;20.90;36.31;102443.97;6143579;23;20017;-84
2021/03/03 13:49:30;;;;;;;72.50;36.60;;;;;;;19.84;36.54;102448.56;6042970;23;20260;-84
2021/03/03 13:53:06;;;;;;;67.68;35.45;;;;;;;19.68;37.53;102442.28;5936371;24;20035;-85
2021/03/03 14:04:13;;;;;;;;;;;;;;;;;;;;;
2021/03/03 14:08:01;;;;;;;;;;;;;;;;;;;;;
2021/03/03 14:11:30;;;;;;;;;;;;;;;;;;;;;
2021/03/03 14:22:36;;;;;;;66.75;35.40;;;;;;;18.67;38.82;102439.16;5900305;24;20033;-83
2021/03/03 14:25:56;;;;;;;65.05;35.17;;;;;;;-61.85;38.82;102439.16;5836141;24;20038;-84
2021/03/03 14:29:05;;;;;;;65.05;35.80;;;;;;;18.67;38.82;77674.09;5855941;24;20250;-84
2021/03/03 14:32:48;;;;;;;;;;;;;;;;;;;;;
2021/03/03 14:36:30;;;;;;;;;;;;;;;;;;;;;
2021/03/03 14:43:09;;;;;;;68.22;36.75;;;;;;;-143.98;100.00;68091.63;5917819;24;20029;-82
2021/03/03 14:46:30;;;;;;;73.88;38.60;;;;;;;-143.98;100.00;68091.63;6085904;23;20504;-82
2021/03/03 14:49:05;;;;;;;69.93;37.83;;;;;;;-143.98;100.00;68091.63;6040680;23;20228;-81
2021/03/03 14:51:57;;;;;;;68.20;39.47;;;;;;;-143.98;100.00;68091.63;6081451;23;20057;-82
2021/03/03 14:54:34;;;;;;;70.20;39.42;;;;;;;-143.98;100.00;68091.63;6082379;23;20391;-83
2021/03/03 14:57:04;;;;;;;73.18;40.88;;;;;;;-143.98;100.00;68091.63;6191513;23;20226;-82
2021/03/03 15:00:27;;;;;;;69.88;38.95;;;;;;;-143.98;100.00;68091.63;6184542;23;20158;-83
2021/03/03 15:03:18;;;;;;;78.97;41.75;;;;;;;-143.98;100.00;68091.63;6192341;23;20027;-83
2021/03/03 15:05:46;;;;;;;68.07;39.45;;;;;;;-143.98;100.00;68091.63;6202303;23;20009;-83
2021/03/03 15:08:16;;;;;;;75.60;40.65;;;;;;;-143.98;100.00;68091.63;6195772;23;20029;-83
2021/03/03 15:11:07;;;;;;;75.10;39.00;;;;;;;-143.98;100.00;68091.63;6165465;23;20051;-82
2021/03/03 15:13:40;;;;;;;77.57;42.80;;;;;;;-143.98;100.00;68091.63;6263912;22;20188;-83
2021/03/03 15:16:15;;;;;;;75.40;41.00;;;;;;;-143.98;100.00;68091.63;6314146;22;20023;-82
2021/03/03 15:18:42;;;;;;;76.32;40.10;;;;;;;-143.98;100.00;68091.63;6288242;22;20062;-82
2021/03/03 15:21:20;;;;;;;75.32;39.97;;;;;;;-143.98;100.00;68091.63;6276771;22;20292;-82
2021/03/03 15:23:54;;;;;;;76.18;40.47;;;;;;;-143.98;100.00;68091.63;6318414;22;20179;-83
2021/03/03 15:26:23;;;;;;;77.82;42.80;;;;;;;-143.98;100.00;68091.63;6342391;22;20023;-82
2021/03/03 15:28:52;;;;;;;88.03;44.42;;;;;;;-143.98;100.00;68091.63;6340998;22;20026;-82
2021/03/03 15:31:22;;;;;;;80.55;43.75;;;;;;;-143.98;100.00;68091.63;6334565;22;20174;-82
2021/03/03 15:33:51;;;;;;;76.97;43.38;;;;;;;-143.98;100.00;68091.63;6303199;22;20032;-83
2021/03/03 15:36:20;;;;;;;79.60;42.03;;;;;;;-143.98;100.00;68091.63;6304939;22;20092;-83
2021/03/03 15:38:47;;;;;;;78.40;44.65;;;;;;;-143.98;100.00;68091.63;6302820;22;20410;-83
2021/03/03 15:41:23;;;;;;;80.05;41.53;;;;;;;-143.98;100.00;68091.63;6326357;22;20126;-83
2021/03/03 15:43:49;;;;;;;78.55;43.42;;;;;;;-143.98;100.00;68091.63;6301001;22;20023;-83
2021/03/03 15:46:16;;;;;;;84.15;41.58;;;;;;;-143.98;100.00;68091.63;6328733;22;20180;-83
2021/03/03 15:48:47;;;;;;;83.95;44.60;;;;;;;-143.98;100.00;68091.63;6331673;22;20034;-82
2021/03/03 15:51:13;;;;;;;78.88;44.40;;;;;;;-143.98;100.00;68091.63;6334712;22;20031;-82
2021/03/03 15:53:51;;;;;;;83.60;44.40;;;;;;;-143.98;100.00;68091.63;6314895;22;20026;-82
2021/03/03 15:56:17;;;;;;;77.57;45.28;;;;;;;-143.98;100.00;68091.63;6312810;22;20050;-82
2021/03/03 15:58:43;;;;;;;78.28;46.28;;;;;;;-143.98;100.00;68091.63;6304766;22;20035;-82
2021/03/03 16:01:15;;;;;;;79.30;45.47;;;;;;;-143.98;100.00;68091.63;6335788;22;20037;-82
2021/03/03 16:03:45;;;;;;;76.47;46.05;;;;;;;-143.98;100.00;68091.63;6329215;22;20095;-82
2021/03/03 16:06:16;;;;;;;81.65;45.78;;;;;;;-143.98;100.00;68091.63;6341626;22;20031;-83
2021/03/03 16:08:45;;;;;;;78.93;47.20;;;;;;;-143.98;100.00;68091.63;6343099;22;20022;-84
2021/03/03 16:11:17;;;;;;;78.25;44.60;;;;;;;-143.98;100.00;68091.63;6326702;22;20027;-82
2021/03/03 16:13:48;;;;;;;82.07;47.35;;;;;;;-143.98;100.00;68091.63;6327070;22;20049;-83
2021/03/03 16:16:19;;;;;;;83.60;47.60;;;;;;;-143.98;100.00;68091.63;6301637;22;20080;-83
2021/03/03 16:18:46;;;;;;;88.25;46.35;;;;;;;-143.98;100.00;68091.63;6299084;22;20440;-83
2021/03/03 16:21:12;;;;;;;83.97;48.65;;;;;;;-143.98;100.00;68091.63;6327477;22;20023;-83
2021/03/03 16:23:39;;;;;;;81.15;47.03;;;;;;;-143.98;100.00;68091.63;6326148;22;20158;-83
2021/03/03 16:26:10;;;;;;;85.20;47.30;;;;;;;-143.98;100.00;68091.63;6301587;22;20022;-82
2021/03/03 16:28:37;;;;;;;82.05;47.95;;;;;;;-143.98;100.00;68091.63;6324618;22;20072;-83
2021/03/03 16:31:05;;;;;;;91.97;51.08;;;;;;;-143.98;100.00;68091.63;6325305;22;20341;-83
2021/03/03 16:33:33;;;;;;;88.50;49.85;;;;;;;-143.98;100.00;68091.63;6301959;22;20426;-82
2021/03/03 16:36:16;;;;;;;85.03;48.63;;;;;;;-143.98;100.00;68091.63;6329072;22;20129;-81
2021/03/03 16:38:47;;;;;;;85.85;49.40;;;;;;;-143.98;100.00;68091.63;6303715;22;20483;-81
2021/03/03 16:41:15;;;;;;;87.35;52.47;;;;;;;-143.98;100.00;68091.63;6303351;22;20023;-83
2021/03/03 16:43:41;;;;;;;96.93;55.00;;;;;;;-143.98;100.00;68091.63;6328591;22;20058;-82
2021/03/03 16:46:10;;;;;;;99.63;53.17;;;;;;;-143.98;100.00;68091.63;6328821;22;20026;-81
2021/03/03 16:48:50;;;;;;;88.43;51.70;;;;;;;-143.98;100.00;68091.63;6326294;22;20027;-83